createdAt,value
2022-08-09T00:00:19.545Z,101911.89
2022-08-09T00:06:18.689Z,101914.59
2022-08-09T00:11:58.724Z,101917.27
2022-08-09T00:18:10.901Z,101918.71
2022-08-09T00:23:56.395Z,101917.21
2022-08-09T00:29:12.494Z,101917.96
2022-08-09T00:34:51.908Z,101921.87
2022-08-09T00:40:17.252Z,101917.41
2022-08-09T00:45:26.756Z,101916.13
2022-08-09T00:50:41.806Z,101915.49
2022-08-09T00:56:05.722Z,101913.23
2022-08-09T01:01:32.457Z,101918.58
2022-08-09T01:07:18.692Z,101921.53
2022-08-09T01:13:22.376Z,101921.90
2022-08-09T01:18:47.642Z,101927.45
2022-08-09T01:24:44.076Z,101922.73
2022-08-09T01:30:08.192Z,101922.50
2022-08-09T01:35:38.790Z,101921.44
2022-08-09T01:41:13.341Z,101923.25
2022-08-09T01:46:29.121Z,101923.10
2022-08-09T01:51:38.919Z,101929.25
2022-08-09T01:56:53.809Z,101925.85
2022-08-09T02:02:09.409Z,101927.02
2022-08-09T02:08:39.063Z,101932.70
2022-08-09T02:12:51.511Z,101928.46
2022-08-09T02:18:10.473Z,101929.66
2022-08-09T02:23:31.789Z,101930.43
2022-08-09T02:28:53.211Z,101921.47
2022-08-09T02:34:40.088Z,101921.85
2022-08-09T02:40:03.577Z,101923.35
2022-08-09T02:45:22.463Z,101920.63
2022-08-09T02:50:42.218Z,101924.30
2022-08-09T02:55:57.502Z,101924.72
2022-08-09T03:01:29.022Z,101927.64
2022-08-09T03:06:46.185Z,101932.54
2022-08-09T03:12:17.812Z,101935.38
2022-08-09T03:17:27.596Z,101936.35
2022-08-09T03:22:56.968Z,101935.50
2022-08-09T03:28:11.323Z,101933.81
2022-08-09T03:33:20.749Z,101932.37
2022-08-09T03:38:42.749Z,101931.71
2022-08-09T03:44:12.041Z,101935.44
2022-08-09T03:49:32.887Z,101936.41
2022-08-09T03:54:49.386Z,101937.62
2022-08-09T04:00:00.739Z,101940.34
2022-08-09T04:05:27.454Z,101943.80
2022-08-09T04:11:01.728Z,101942.94
2022-08-09T04:16:19.843Z,101948.78
2022-08-09T04:21:31.567Z,101949.72
2022-08-09T04:26:46.242Z,101948.08
2022-08-09T04:31:53.709Z,101952.42
2022-08-09T04:37:09.881Z,101958.27
2022-08-09T04:42:18.613Z,101962.11
2022-08-09T04:47:27.110Z,101965.02
2022-08-09T04:52:53.226Z,101969.67
2022-08-09T04:58:09.738Z,101971.09
2022-08-09T05:03:39.804Z,101977.65
2022-08-09T05:08:51.483Z,101976.61
2022-08-09T05:14:19.221Z,101980.92
2022-08-09T05:19:31.803Z,101981.63
2022-08-09T05:24:57.270Z,101983.46
2022-08-09T05:30:12.262Z,101984.48
2022-08-09T05:35:46.735Z,101989.39
2022-08-09T05:41:12.701Z,101989.96
2022-08-09T05:46:23.699Z,101991.66
2022-08-09T05:51:45.945Z,101993.24
2022-08-09T05:57:00.734Z,101994.52
2022-08-09T06:02:10.005Z,101989.38
2022-08-09T06:07:28.395Z,101990.20
2022-08-09T06:13:02.906Z,101995.46
2022-08-09T06:18:17.431Z,101998.77
2022-08-09T06:23:57.658Z,101998.30
2022-08-09T06:29:05.079Z,102003.46
2022-08-09T06:34:13.596Z,102007.00
2022-08-09T06:39:48.209Z,102011.67
2022-08-09T06:45:00.492Z,102011.52
2022-08-09T06:50:32.061Z,102016.73
2022-08-09T06:55:40.753Z,102018.48
2022-08-09T07:00:58.544Z,102019.30
2022-08-09T07:06:08.802Z,102024.84
2022-08-09T07:11:25.223Z,102022.87
2022-08-09T07:16:41.781Z,102027.09
2022-08-09T07:21:59.844Z,102029.17
2022-08-09T07:27:33.387Z,102028.30
2022-08-09T07:32:43.637Z,102031.54
2022-08-09T07:37:54.274Z,102037.18
2022-08-09T07:43:16.699Z,102039.92
2022-08-09T07:48:30.402Z,102038.36
2022-08-09T07:54:05.720Z,102040.89
2022-08-09T07:59:34.503Z,102040.55
2022-08-09T08:04:53.837Z,102042.66
2022-08-09T08:10:08.084Z,102042.30
2022-08-09T08:15:27.697Z,102039.45
2022-08-09T08:20:39.101Z,102040.32
2022-08-09T08:25:54.335Z,102047.08
2022-08-09T08:31:24.431Z,102052.42
2022-08-09T08:36:56.123Z,102056.85
2022-08-09T08:42:11.566Z,102057.30
2022-08-09T08:47:19.347Z,102062.71
2022-08-09T08:58:03.529Z,102066.09
2022-08-09T09:03:33.059Z,102065.91
2022-08-09T09:08:59.752Z,102064.45
2022-08-09T09:14:27.183Z,102058.99
2022-08-09T09:19:41.337Z,102061.58
2022-08-09T09:25:00.814Z,102060.20
2022-08-09T09:30:40.093Z,102059.94
2022-08-09T09:36:00.581Z,102059.36
2022-08-09T09:41:33.391Z,102055.85
2022-08-09T09:47:13.601Z,102056.96
2022-08-09T09:52:36.510Z,102059.01
2022-08-09T09:58:18.622Z,102060.57
2022-08-09T10:03:57.960Z,102055.64
2022-08-09T10:09:22.724Z,102055.48
2022-08-09T10:14:33.562Z,102050.96
2022-08-09T10:19:45.885Z,102047.20
2022-08-09T10:25:11.618Z,102046.61
2022-08-09T10:32:13.686Z,102047.73
2022-08-09T10:36:27.834Z,102036.89
2022-08-09T10:41:56.349Z,102031.09
2022-08-09T10:48:12.436Z,102028.95
2022-08-09T10:53:46.632Z,102025.90
2022-08-09T10:59:55.716Z,102018.99
2022-08-09T11:05:25.441Z,102019.30
2022-08-09T11:11:00.790Z,102022.88
2022-08-09T11:16:42.359Z,102016.23
2022-08-09T11:22:10.191Z,102007.91
2022-08-09T11:28:03.999Z,102008.00
2022-08-09T11:33:26.903Z,102011.84
2022-08-09T11:38:41.479Z,102012.19
2022-08-09T11:43:52.950Z,102014.06
2022-08-09T11:49:09.927Z,102011.01
2022-08-09T11:54:29.930Z,102002.26
2022-08-09T11:59:44.820Z,101999.20
2022-08-09T12:05:02.870Z,102000.83
2022-08-09T12:10:39.575Z,101989.98
2022-08-09T12:16:05.307Z,101986.10
2022-08-09T12:21:38.825Z,101988.63
2022-08-09T12:29:12.642Z,101983.61
2022-08-09T12:32:28.492Z,101986.45
2022-08-09T12:37:49.845Z,101987.58
2022-08-09T12:42:59.818Z,101980.52
2022-08-09T12:48:28.015Z,101981.61
2022-08-09T12:53:40.734Z,101975.30
2022-08-09T12:59:10.336Z,101973.69
2022-08-09T13:04:36.184Z,101972.72
2022-08-09T13:09:55.991Z,101966.14
2022-08-09T13:15:12.802Z,101976.27
2022-08-09T13:21:04.009Z,101981.02
2022-08-09T13:26:05.461Z,101986.89
2022-08-09T13:32:16.783Z,101987.23
2022-08-09T13:36:45.548Z,101987.05
2022-08-09T13:42:01.335Z,101981.66
2022-08-09T13:47:31.402Z,101987.71
2022-08-09T13:52:44.998Z,101992.30
2022-08-09T13:57:59.380Z,101996.02
2022-08-09T14:04:01.782Z,101992.94
2022-08-09T14:08:34.973Z,101988.20
2022-08-09T14:14:24.173Z,101984.09
2022-08-09T14:19:10.378Z,101986.73
2022-08-09T14:24:22.182Z,101992.70
2022-08-09T14:30:35.790Z,101994.50
2022-08-09T14:35:23.294Z,102008.20
2022-08-09T14:41:04.149Z,102015.09
2022-08-09T14:46:57.963Z,102019.91
2022-08-09T14:51:44.701Z,102024.59
2022-08-09T14:56:58.792Z,102028.31
2022-08-09T15:02:14.013Z,102025.55
2022-08-09T15:07:23.662Z,102023.58
2022-08-09T15:12:32.046Z,102018.09
2022-08-09T15:17:52.842Z,102023.36
2022-08-09T15:24:00.604Z,102021.95
2022-08-09T15:28:35.726Z,102021.85
2022-08-09T15:34:32.205Z,102019.79
2022-08-09T15:39:20.812Z,102015.94
2022-08-09T15:44:32.587Z,102015.16
2022-08-09T15:49:41.371Z,102007.13
2022-08-09T15:55:15.252Z,102005.35
2022-08-09T16:00:25.733Z,102003.47
2022-08-09T16:05:47.659Z,102005.46
2022-08-09T16:11:04.804Z,102005.67
2022-08-09T16:16:29.586Z,102010.77
2022-08-09T16:21:40.434Z,102009.34
2022-08-09T16:26:48.737Z,102002.35
2022-08-09T16:32:12.563Z,101993.45
2022-08-09T16:37:54.060Z,101990.30
2022-08-09T16:43:02.267Z,101991.79
2022-08-09T16:48:42.616Z,101987.83
2022-08-09T16:53:56.191Z,101991.09
2022-08-09T16:59:10.556Z,101988.55
2022-08-09T17:04:25.454Z,101988.82
2022-08-09T17:09:45.515Z,101992.27
2022-08-09T17:14:58.142Z,101994.20
2022-08-09T17:20:35.692Z,102000.69
2022-08-09T17:25:35.304Z,102004.16
2022-08-09T17:30:47.967Z,102010.40
2022-08-09T17:35:55.748Z,102011.67
2022-08-09T17:41:04.219Z,102014.88
2022-08-09T17:46:11.925Z,102012.41
2022-08-09T17:51:23.426Z,102015.51
2022-08-09T17:56:35.309Z,102019.09
2022-08-09T18:02:06.654Z,102012.83
2022-08-09T18:07:22.286Z,102018.21
2022-08-09T18:13:38.330Z,102029.46
2022-08-09T18:18:10.371Z,102030.39
2022-08-09T18:24:09.544Z,102034.69
2022-08-09T18:30:41.747Z,102040.48
2022-08-09T18:34:39.305Z,102047.58
2022-08-09T18:39:50.098Z,102047.23
2022-08-09T18:45:03.100Z,102051.23
2022-08-09T18:50:37.898Z,102055.02
2022-08-09T18:56:05.479Z,102054.42
2022-08-09T19:01:43.523Z,102058.73
2022-08-09T19:07:06.369Z,102060.46
2022-08-09T19:12:25.474Z,102057.20
2022-08-09T19:17:56.598Z,102059.52
2022-08-09T19:24:32.337Z,102060.69
2022-08-09T19:29:18.263Z,102068.50
2022-08-09T19:34:30.765Z,102063.99
2022-08-09T19:40:04.288Z,102062.52
2022-08-09T19:45:38.997Z,102068.89
2022-08-09T19:51:09.970Z,102079.52
2022-08-09T19:56:28.917Z,102080.88
2022-08-09T20:02:18.179Z,102084.89
2022-08-09T20:07:59.181Z,102087.10
2022-08-09T20:13:21.206Z,102083.79
2022-08-09T20:19:42.369Z,102085.01
2022-08-09T20:24:36.828Z,102086.93
2022-08-09T20:30:23.754Z,102088.55
2022-08-09T20:35:54.631Z,102088.80
2022-08-09T20:41:18.360Z,102093.13
2022-08-09T20:47:00.244Z,102090.29
2022-08-09T20:52:24.881Z,102092.11
2022-08-09T20:58:05.559Z,102091.42
2022-08-09T21:05:51.031Z,102089.79
2022-08-09T21:09:24.853Z,102085.44
2022-08-09T21:14:58.591Z,102091.01
2022-08-09T21:20:22.819Z,102094.36
2022-08-09T21:25:59.721Z,102096.92
2022-08-09T21:31:21.691Z,102101.46
2022-08-09T21:36:33.559Z,102102.72
2022-08-09T21:42:10.417Z,102100.09
2022-08-09T21:47:26.587Z,102097.11
2022-08-09T21:52:51.470Z,102092.22
2022-08-09T21:58:54.275Z,102098.90
2022-08-09T22:04:04.893Z,102100.73
2022-08-09T22:09:35.473Z,102101.86
2022-08-09T22:14:51.965Z,102100.70
2022-08-09T22:20:02.948Z,102100.16
2022-08-09T22:26:06.056Z,102102.88
2022-08-09T22:31:08.092Z,102099.11
2022-08-09T22:36:25.086Z,102095.48
2022-08-09T22:41:38.963Z,102099.59
2022-08-09T22:48:12.381Z,102099.43
2022-08-09T22:52:40.349Z,102104.27
2022-08-09T22:58:00.398Z,102109.01
2022-08-09T23:03:16.871Z,102105.66
2022-08-09T23:08:48.141Z,102103.72
2022-08-09T23:14:17.466Z,102101.79
2022-08-09T23:20:07.216Z,102108.05
2022-08-09T23:25:23.447Z,102102.73
2022-08-09T23:30:52.073Z,102106.62
2022-08-09T23:36:20.556Z,102104.50
2022-08-09T23:41:48.579Z,102107.19
2022-08-09T23:47:04.804Z,102103.54
2022-08-09T23:52:26.641Z,102108.13
2022-08-09T23:57:44.902Z,102105.48
